Time;durP1;ratioP1;P1;durP2;ratioP2;P2;SDS_P1;SDS_P2;PMS_P1;PMS_P2;Temp;Humidity;BMP_temperature;BMP_pressure;BME280_temperature;BME280_humidity;BME280_pressure;Samples;Min_cycle;Max_cycle;Signal;HPM_P1;HPM_P2
2022/01/30 00:00:00;;;;;;;18.58;2.97;;;6.40;99.90;;;;;;4999893;28;20116;-84
2022/01/30 00:02:30;;;;;;;21.67;2.83;;;7.50;99.90;;;;;;4984837;28;20050;-85
2022/01/30 00:04:56;;;;;;;24.52;3.85;;;7.30;99.90;;;;;;4985221;28;20049;-85
2022/01/30 00:07:22;;;;;;;18.98;2.65;;;6.60;99.90;;;;;;4993014;28;20054;-83
2022/01/30 00:09:49;;;;;;;15.68;2.00;;;6.60;99.90;;;;;;4979665;28;20049;-83
2022/01/30 00:12:17;;;;;;;16.33;1.80;;;7.50;99.90;;;;;;5001576;28;20043;-85
2022/01/30 00:14:43;;;;;;;8.15;1.42;;;6.60;99.90;;;;;;4999898;28;20136;-82
2022/01/30 00:17:23;;;;;;;25.13;2.72;;;6.60;99.90;;;;;;4994393;28;20591;-84
2022/01/30 00:19:57;;;;;;;19.48;3.25;;;6.60;99.90;;;;;;4997810;28;20074;-85
2022/01/30 00:27:25;;;;;;;9.20;1.40;;;6.50;99.90;;;;;;5015205;28;20041;-85
2022/01/30 00:29:52;;;;;;;11.50;1.60;;;6.60;99.90;;;;;;5043553;28;20052;-84
2022/01/30 00:32:17;;;;;;;14.98;1.73;;;7.10;99.90;;;;;;5043174;28;20033;-85
2022/01/30 00:34:43;;;;;;;10.25;1.40;;;6.70;99.90;;;;;;5043874;28;20044;-83
2022/01/30 00:37:09;;;;;;;15.82;1.58;;;6.60;99.90;;;;;;5036259;28;20405;-84
2022/01/30 00:39:35;;;;;;;8.85;1.55;;;7.10;99.90;;;;;;5035690;28;20041;-84
2022/01/30 00:42:00;;;;;;;19.23;1.73;;;6.50;99.90;;;;;;5036131;28;20049;-83
2022/01/30 00:44:26;;;;;;;19.25;1.83;;;6.60;99.90;;;;;;5035152;28;20394;-85
2022/01/30 00:46:53;;;;;;;20.67;3.20;;;6.50;99.90;;;;;;5035993;28;20141;-87
2022/01/30 00:49:19;;;;;;;21.15;2.40;;;6.60;99.90;;;;;;5041669;28;20048;-86
2022/01/30 00:51:44;;;;;;;17.65;2.42;;;7.60;99.90;;;;;;5044462;28;20044;-85
2022/01/30 00:54:10;;;;;;;14.65;2.47;;;6.90;99.90;;;;;;5035056;28;20049;-85
2022/01/30 00:56:35;;;;;;;20.30;2.15;;;6.80;99.90;;;;;;5035180;28;20046;-84
2022/01/30 00:59:01;;;;;;;13.77;1.42;;;6.20;99.90;;;;;;5050934;28;20089;-86
2022/01/30 01:01:27;;;;;;;26.75;3.03;;;5.90;99.90;;;;;;5035480;28;20049;-84
2022/01/30 01:03:52;;;;;;;17.48;2.35;;;6.00;99.90;;;;;;5016756;28;20037;-86
2022/01/30 01:06:18;;;;;;;24.58;3.22;;;6.40;99.90;;;;;;5035838;28;20371;-85
2022/01/30 01:08:52;;;;;;;22.00;3.08;;;6.10;99.90;;;;;;5025112;28;20045;-86
2022/01/30 01:24:45;;;;;;;32.08;4.47;;;6.40;99.90;;;;;;5011599;28;20081;-86
2022/01/30 01:27:11;;;;;;;25.55;3.42;;;6.40;99.90;;;;;;5012074;28;20084;-86
2022/01/30 01:29:37;;;;;;;21.40;2.28;;;6.50;99.90;;;;;;5002517;28;20038;-86
2022/01/30 01:32:04;;;;;;;19.90;2.67;;;6.60;99.90;;;;;;5010962;28;20050;-86
2022/01/30 01:34:36;;;;;;;24.02;3.05;;;6.80;99.90;;;;;;5011772;28;20494;-87
2022/01/30 01:37:02;;;;;;;22.98;2.47;;;6.80;99.90;;;;;;5011465;28;20045;-85
2022/01/30 01:39:28;;;;;;;28.48;3.42;;;6.90;99.90;;;;;;5001541;28;20073;-86
2022/01/30 01:41:55;;;;;;;25.23;3.42;;;6.90;99.90;;;;;;5007663;28;20477;-86
2022/01/30 01:44:35;;;;;;;22.27;2.67;;;6.90;99.90;;;;;;5004850;28;20125;-86
2022/01/30 01:47:01;;;;;;;23.33;3.13;;;6.70;99.90;;;;;;5011531;28;20057;-86
2022/01/30 01:49:30;;;;;;;37.72;3.95;;;6.60;99.90;;;;;;5007197;28;20521;-86
2022/01/30 01:54:49;;;;;;;23.23;3.88;;;7.10;99.90;;;;;;4956404;28;20114;-85
2022/01/30 01:57:15;;;;;;;26.40;2.80;;;6.70;99.90;;;;;;4960943;28;20083;-84
2022/01/30 01:59:41;;;;;;;29.70;3.53;;;6.60;99.90;;;;;;4955254;28;20074;-84
2022/01/30 02:02:07;;;;;;;22.25;3.35;;;7.30;99.90;;;;;;4953209;28;20043;-84
2022/01/30 02:04:33;;;;;;;21.73;3.30;;;6.60;99.90;;;;;;4953277;28;20055;-86
2022/01/30 02:09:55;;;;;;;26.23;4.10;;;6.60;99.90;;;;;;4878541;29;20135;-85
2022/01/30 02:12:30;;;;;;;23.15;3.10;;;6.70;99.90;;;;;;4878058;29;20053;-85
2022/01/30 02:25:48;;;;;;;26.33;3.63;;;7.60;99.90;;;;;;4877185;29;20085;-83
2022/01/30 02:28:17;;;;;;;18.55;2.60;;;7.80;99.90;;;;;;4877916;29;20471;-85
2022/01/30 02:30:52;;;;;;;20.38;2.65;;;7.00;99.90;;;;;;4880294;29;20057;-85
2022/01/30 02:33:21;;;;;;;28.15;3.00;;;7.10;99.90;;;;;;4915745;29;20056;-85
2022/01/30 02:35:47;;;;;;;19.30;2.92;;;7.10;99.90;;;;;;4925352;29;20075;-86
2022/01/30 02:38:15;;;;;;;24.88;3.13;;;7.40;99.90;;;;;;4923310;29;20087;-81
2022/01/30 02:40:43;;;;;;;23.08;2.92;;;6.80;99.90;;;;;;4905282;29;20453;-85
2022/01/30 02:43:09;;;;;;;32.90;4.43;;;6.90;99.90;;;;;;4914088;29;20141;-84
2022/01/30 02:45:39;;;;;;;24.50;3.92;;;7.60;99.90;;;;;;4940021;28;20124;-85
2022/01/30 02:53:01;;;;;;;27.45;4.22;;;7.50;99.90;;;;;;5036865;28;20080;-84
2022/01/30 02:55:26;;;;;;;34.47;5.38;;;6.80;99.90;;;;;;5040577;28;20045;-85
2022/01/30 02:57:52;;;;;;;41.55;5.80;;;6.90;99.90;;;;;;5037953;28;20076;-86
2022/01/30 03:00:18;;;;;;;26.02;4.18;;;6.90;99.90;;;;;;5034718;28;20038;-85
2022/01/30 03:02:44;;;;;;;28.63;5.03;;;6.90;99.90;;;;;;5039745;28;20116;-85
2022/01/30 03:05:09;;;;;;;29.17;3.97;;;7.00;99.90;;;;;;5040400;28;20045;-86
2022/01/30 03:07:35;;;;;;;26.60;4.18;;;7.60;99.90;;;;;;5041028;28;20060;-87
2022/01/30 03:10:01;;;;;;;27.40;3.97;;;7.00;99.90;;;;;;5032314;28;20038;-84
2022/01/30 03:12:27;;;;;;;30.40;5.20;;;7.10;99.90;;;;;;5015405;28;20046;-86
2022/01/30 03:14:52;;;;;;;27.70;4.07;;;7.10;99.90;;;;;;5045366;28;20046;-86
2022/01/30 03:17:18;;;;;;;26.30;3.33;;;;;;;;;;5040598;28;20404;-84
2022/01/30 03:19:44;;;;;;;27.70;3.55;;;7.20;99.90;;;;;;5044011;28;20067;-85
2022/01/30 03:22:10;;;;;;;23.48;3.90;;;7.20;99.90;;;;;;5043872;28;20045;-85
2022/01/30 03:24:37;;;;;;;28.63;3.70;;;7.50;99.90;;;;;;5033886;28;20041;-84
2022/01/30 03:27:09;;;;;;;38.70;5.55;;;7.20;99.90;;;;;;5045699;28;20048;-86
2022/01/30 03:29:36;;;;;;;30.27;3.90;;;7.30;99.90;;;;;;5015520;28;20482;-84
2022/01/30 03:32:02;;;;;;;31.33;4.43;;;7.30;99.90;;;;;;5042638;28;20112;-85
2022/01/30 03:34:28;;;;;;;30.52;4.60;;;7.20;99.90;;;;;;5025459;28;20049;-85
2022/01/30 03:36:54;;;;;;;37.97;4.88;;;8.20;99.90;;;;;;5036143;28;20119;-85
2022/01/30 03:39:19;;;;;;;27.98;3.75;;;8.20;99.90;;;;;;5043775;28;20045;-85
2022/01/30 03:41:45;;;;;;;33.28;5.15;;;8.00;99.90;;;;;;5014144;28;20423;-85
2022/01/30 03:44:11;;;;;;;30.73;4.20;;;7.30;99.90;;;;;;5033337;28;20030;-86
2022/01/30 03:46:36;;;;;;;30.42;4.28;;;7.50;99.90;;;;;;5033399;28;20049;-85
2022/01/30 03:49:02;;;;;;;43.40;5.90;;;7.60;99.90;;;;;;5044491;28;20925;-86
2022/01/30 03:51:28;;;;;;;28.42;4.43;;;7.00;99.90;;;;;;5043969;28;20085;-84
2022/01/30 03:53:53;;;;;;;34.28;5.60;;;7.10;99.90;;;;;;5044352;28;20048;-85
2022/01/30 03:56:19;;;;;;;34.80;4.82;;;7.70;99.90;;;;;;5043330;28;20474;-83
2022/01/30 03:58:45;;;;;;;34.30;5.70;;;7.70;99.90;;;;;;5042182;28;20046;-84
2022/01/30 04:01:10;;;;;;;27.98;4.63;;;7.10;99.90;;;;;;5046953;28;20128;-85
2022/01/30 04:03:36;;;;;;;28.27;4.93;;;7.20;99.90;;;;;;5038058;28;20474;-86
2022/01/30 04:06:05;;;;;;;26.92;4.13;;;7.40;99.90;;;;;;5043111;28;20398;-85
2022/01/30 04:08:32;;;;;;;29.05;4.72;;;7.10;99.90;;;;;;5041995;28;20481;-85
2022/01/30 04:10:58;;;;;;;27.52;4.03;;;7.10;99.90;;;;;;5046478;28;20221;-84
2022/01/30 04:13:24;;;;;;;16.40;2.95;;;7.30;99.90;;;;;;5039844;28;20545;-85
2022/01/30 04:15:50;;;;;;;19.88;2.90;;;7.40;99.90;;;;;;5043260;28;20183;-85
2022/01/30 04:18:16;;;;;;;23.98;2.83;;;7.30;99.90;;;;;;5022617;28;20041;-85
2022/01/30 04:20:42;;;;;;;33.28;4.30;;;7.30;99.90;;;;;;5045824;28;20041;-85
2022/01/30 04:23:07;;;;;;;25.38;4.15;;;7.40;99.90;;;;;;5016611;28;20437;-86
2022/01/30 04:25:33;;;;;;;21.52;3.20;;;7.50;99.90;;;;;;5035392;28;20041;-83
2022/01/30 04:28:00;;;;;;;32.10;3.90;;;8.10;99.90;;;;;;5042858;28;20041;-84
2022/01/30 04:30:25;;;;;;;34.65;5.15;;;7.30;99.90;;;;;;5029630;28;20137;-82
2022/01/30 04:32:51;;;;;;;24.13;4.63;;;7.20;99.90;;;;;;5038349;28;20124;-84
2022/01/30 04:35:25;;;;;;;21.35;3.67;;;7.40;99.90;;;;;;5039955;28;20588;-83
2022/01/30 04:56:56;;;;;;;51.00;6.30;;;6.40;99.90;;;;;;5039217;28;20481;-83
2022/01/30 05:09:42;;;;;;;31.38;4.82;;;6.80;99.90;;;;;;5038784;28;20116;-85
2022/01/30 05:12:09;;;;;;;41.60;5.88;;;6.40;99.90;;;;;;5040717;28;20044;-83
2022/01/30 05:14:36;;;;;;;37.58;5.03;;;6.40;99.90;;;;;;5040829;28;20029;-83
2022/01/30 05:17:04;;;;;;;47.75;5.97;;;6.40;99.90;;;;;;5041961;28;20041;-84
2022/01/30 05:19:30;;;;;;;38.88;6.43;;;6.50;99.90;;;;;;5042138;28;20034;-84
2022/01/30 05:21:57;;;;;;;36.70;4.47;;;7.10;99.90;;;;;;5034617;28;20049;-84
2022/01/30 05:24:23;;;;;;;36.72;5.43;;;6.40;99.90;;;;;;5016624;28;20037;-85
2022/01/30 05:26:49;;;;;;;31.23;4.50;;;5.80;99.90;;;;;;5033875;28;20053;-85
2022/01/30 05:29:15;;;;;;;35.38;5.85;;;6.00;99.90;;;;;;5015935;28;20044;-85
2022/01/30 05:31:42;;;;;;;55.45;6.35;;;6.00;99.90;;;;;;5025429;28;20501;-85
2022/01/30 05:34:08;;;;;;;40.15;5.50;;;6.30;99.90;;;;;;5016134;28;20045;-85
2022/01/30 05:36:39;;;;;;;36.50;5.30;;;6.30;99.90;;;;;;5038502;28;20063;-85
2022/01/30 05:39:05;;;;;;;35.55;4.88;;;6.00;99.90;;;;;;5036504;28;20046;-85
2022/01/30 05:41:32;;;;;;;28.98;3.47;;;6.10;99.90;;;;;;5044800;28;20516;-85
2022/01/30 05:44:07;;;;;;;21.15;2.95;;;6.20;99.90;;;;;;5019233;28;20112;-85
2022/01/30 05:46:55;;;;;;;20.00;3.67;;;6.00;99.90;;;;;;5041418;28;20143;-84
2022/01/30 05:49:21;;;;;;;37.88;5.38;;;5.90;99.90;;;;;;5047541;28;20374;-85
2022/01/30 05:51:47;;;;;;;27.63;4.25;;;5.90;99.90;;;;;;5046917;28;20041;-85
2022/01/30 05:54:13;;;;;;;35.15;5.07;;;5.80;99.90;;;;;;5018635;28;20107;-83
2022/01/30 05:56:38;;;;;;;31.67;3.90;;;5.90;99.90;;;;;;5052279;28;20049;-85
2022/01/30 05:59:05;;;;;;;40.88;5.57;;;5.80;99.90;;;;;;5052543;28;20056;-84
2022/01/30 06:01:31;;;;;;;45.15;6.90;;;6.10;99.90;;;;;;5018157;28;20501;-85
2022/01/30 06:03:57;;;;;;;37.08;5.43;;;6.60;99.90;;;;;;5042396;28;20037;-84
2022/01/30 06:06:22;;;;;;;44.90;7.20;;;5.90;99.90;;;;;;5040972;28;20131;-85
2022/01/30 06:11:43;;;;;;;45.03;5.20;;;5.80;99.90;;;;;;4982229;28;20411;-86
2022/01/30 06:14:09;;;;;;;36.78;5.95;;;5.80;99.90;;;;;;4984259;28;20434;-85
2022/01/30 06:16:35;;;;;;;45.08;7.22;;;6.00;99.90;;;;;;4984567;28;20061;-85
2022/01/30 06:19:01;;;;;;;41.92;5.75;;;6.30;99.90;;;;;;5005368;28;20045;-86
2022/01/30 06:21:28;;;;;;;33.63;5.38;;;6.80;99.90;;;;;;4999039;28;20097;-83
2022/01/30 06:23:54;;;;;;;40.97;5.90;;;5.50;99.90;;;;;;4998963;28;20058;-84
2022/01/30 06:26:19;;;;;;;34.42;5.50;;;6.10;99.90;;;;;;4999239;28;20096;-85
2022/01/30 06:28:45;;;;;;;29.48;5.15;;;6.90;99.90;;;;;;4992392;28;20055;-85
2022/01/30 06:31:11;;;;;;;27.30;3.83;;;6.30;99.90;;;;;;5002343;28;20038;-86
2022/01/30 06:33:36;;;;;;;38.33;4.93;;;6.30;99.90;;;;;;4977664;28;20126;-85
2022/01/30 06:36:02;;;;;;;38.90;4.78;;;7.10;99.90;;;;;;4979692;28;20173;-83
2022/01/30 06:38:28;;;;;;;33.50;4.97;;;6.20;99.90;;;;;;4999176;28;20069;-86
2022/01/30 06:40:54;;;;;;;33.40;5.00;;;6.20;99.90;;;;;;4974964;28;20254;-85
2022/01/30 06:43:19;;;;;;;41.97;6.13;;;6.20;99.90;;;;;;4998748;28;20495;-84
2022/01/30 06:45:45;;;;;;;32.78;4.93;;;6.20;99.90;;;;;;4998147;28;20038;-85
2022/01/30 06:48:11;;;;;;;32.53;5.00;;;6.90;99.90;;;;;;5021530;28;20064;-85
2022/01/30 06:50:39;;;;;;;35.25;5.55;;;6.30;99.90;;;;;;5034188;28;20482;-85
2022/01/30 06:53:07;;;;;;;36.45;5.65;;;6.30;99.90;;;;;;5040113;28;20120;-86
2022/01/30 06:55:33;;;;;;;23.83;4.28;;;6.30;99.90;;;;;;5033524;28;20115;-85
2022/01/30 06:57:59;;;;;;;30.00;4.70;;;6.40;99.90;;;;;;5039927;28;20037;-86
2022/01/30 07:00:24;;;;;;;23.20;3.72;;;6.80;99.90;;;;;;5035154;28;20041;-85
2022/01/30 07:02:50;;;;;;;19.25;2.75;;;6.50;99.90;;;;;;5037641;28;20172;-86
2022/01/30 07:05:15;;;;;;;23.63;3.63;;;6.40;99.90;;;;;;5034087;28;20501;-86
2022/01/30 07:07:42;;;;;;;31.67;4.22;;;7.10;99.90;;;;;;5038951;28;20076;-86
2022/01/30 07:10:08;;;;;;;25.40;3.97;;;6.40;99.90;;;;;;5039451;28;20041;-84
2022/01/30 07:12:34;;;;;;;21.27;4.13;;;6.40;99.90;;;;;;5024831;28;20073;-86
2022/01/30 07:15:00;;;;;;;25.98;3.50;;;6.30;99.90;;;;;;5036660;28;20127;-86
2022/01/30 07:17:25;;;;;;;30.10;4.35;;;6.20;99.90;;;;;;5029357;28;20044;-85
2022/01/30 07:19:51;;;;;;;18.73;2.25;;;7.30;99.90;;;;;;5032255;28;20033;-85
2022/01/30 07:22:16;;;;;;;18.33;3.30;;;6.30;99.90;;;;;;5013772;28;20472;-85
2022/01/30 07:24:42;;;;;;;23.50;3.92;;;6.50;99.90;;;;;;5044276;28;20045;-85
2022/01/30 07:27:09;;;;;;;24.40;4.28;;;6.30;99.90;;;;;;5041283;28;20075;-84
2022/01/30 07:29:35;;;;;;;29.88;4.35;;;6.50;99.90;;;;;;5054820;28;20545;-84
2022/01/30 07:32:00;;;;;;;23.60;3.40;;;6.70;99.90;;;;;;5043791;28;20133;-85
2022/01/30 07:34:26;;;;;;;25.52;3.75;;;6.60;99.90;;;;;;5042417;28;20036;-84
2022/01/30 07:36:56;;;;;;;39.83;5.97;;;6.40;99.90;;;;;;5038119;28;20120;-85
2022/01/30 07:39:21;;;;;;;28.25;4.65;;;6.40;99.90;;;;;;5044124;28;20393;-84
2022/01/30 07:41:47;;;;;;;38.58;5.47;;;6.70;99.90;;;;;;5043864;28;20128;-84
2022/01/30 07:44:15;;;;;;;38.92;4.68;;;6.50;99.90;;;;;;5028122;28;20045;-84
2022/01/30 07:46:40;;;;;;;25.45;3.90;;;6.50;99.90;;;;;;5042663;28;20421;-85
2022/01/30 07:49:06;;;;;;;31.15;4.75;;;7.30;99.90;;;;;;5044914;28;20094;-84
2022/01/30 07:51:32;;;;;;;24.73;4.65;;;6.40;99.90;;;;;;5040602;28;20482;-84
2022/01/30 07:53:57;;;;;;;39.72;4.85;;;6.40;99.90;;;;;;5046366;28;20456;-83
2022/01/30 07:56:23;;;;;;;31.77;6.38;;;6.50;99.90;;;;;;5035187;28;20076;-83
2022/01/30 07:58:49;;;;;;;36.28;5.10;;;6.50;99.90;;;;;;5035615;28;20108;-84
2022/01/30 08:01:15;;;;;;;38.20;4.53;;;6.70;99.90;;;;;;5016774;28;20104;-83
2022/01/30 08:03:40;;;;;;;29.33;4.05;;;6.50;99.90;;;;;;5043627;28;20393;-84
2022/01/30 08:06:06;;;;;;;39.40;5.35;;;6.80;99.90;;;;;;5036191;28;20505;-82
2022/01/30 08:08:31;;;;;;;31.52;5.25;;;6.40;99.90;;;;;;5043597;28;20429;-84
2022/01/30 08:10:57;;;;;;;44.00;5.18;;;6.40;99.90;;;;;;5026031;28;20045;-85
2022/01/30 08:13:23;;;;;;;34.55;5.13;;;7.20;99.90;;;;;;5044362;28;20041;-84
2022/01/30 08:15:49;;;;;;;34.35;4.38;;;6.40;99.90;;;;;;5027326;28;20076;-85
2022/01/30 08:18:14;;;;;;;29.77;4.60;;;6.50;99.90;;;;;;5041207;28;20033;-82
2022/01/30 08:20:42;;;;;;;27.80;4.18;;;6.50;99.90;;;;;;5029369;28;20090;-84
2022/01/30 08:23:11;;;;;;;34.13;4.70;;;7.20;99.90;;;;;;5022190;28;20446;-83
2022/01/30 08:25:38;;;;;;;29.92;4.22;;;7.00;99.90;;;;;;5036433;28;20037;-81
2022/01/30 08:28:03;;;;;;;28.65;4.03;;;7.20;99.90;;;;;;5039836;28;20045;-86
2022/01/30 08:30:29;;;;;;;26.52;4.20;;;6.40;99.90;;;;;;5038593;28;20033;-85
2022/01/30 08:32:55;;;;;;;34.10;4.05;;;6.40;99.90;;;;;;5037141;28;20379;-84
2022/01/30 08:35:21;;;;;;;15.35;2.53;;;6.50;99.90;;;;;;5039573;28;20402;-82
2022/01/30 08:37:47;;;;;;;22.08;3.97;;;6.40;99.90;;;;;;5043236;28;20088;-83
2022/01/30 08:40:16;;;;;;;29.50;4.15;;;6.40;99.90;;;;;;5023469;28;20505;-85
2022/01/30 08:42:43;;;;;;;27.23;3.30;;;6.60;99.90;;;;;;5034720;28;20409;-86
2022/01/30 08:45:11;;;;;;;18.67;3.20;;;6.60;99.90;;;;;;5042919;28;20065;-83
2022/01/30 08:47:37;;;;;;;20.75;4.18;;;6.60;99.90;;;;;;5033877;28;20049;-85
2022/01/30 08:50:04;;;;;;;35.35;4.40;;;6.70;99.90;;;;;;5050336;28;20084;-84
2022/01/30 08:52:30;;;;;;;34.65;5.47;;;6.80;99.90;;;;;;5024433;28;20050;-86
2022/01/30 08:54:56;;;;;;;28.05;4.07;;;7.40;99.90;;;;;;5031197;28;20045;-85
2022/01/30 08:57:22;;;;;;;26.25;4.30;;;6.70;99.90;;;;;;5025318;28;20067;-86
2022/01/30 08:59:47;;;;;;;31.40;5.18;;;6.60;99.90;;;;;;5022385;28;20033;-84
2022/01/30 09:02:13;;;;;;;33.33;5.30;;;6.70;99.90;;;;;;5020492;28;20107;-83
2022/01/30 09:04:39;;;;;;;33.80;4.88;;;7.50;99.90;;;;;;5034602;28;20042;-84
2022/01/30 09:07:05;;;;;;;34.83;5.55;;;7.10;99.90;;;;;;5024570;28;20075;-85
2022/01/30 09:09:31;;;;;;;29.30;4.40;;;7.00;99.90;;;;;;5016217;28;20041;-81
2022/01/30 09:11:58;;;;;;;28.95;3.85;;;6.80;99.90;;;;;;5040092;28;20044;-84
2022/01/30 09:14:27;;;;;;;28.42;4.72;;;7.00;99.90;;;;;;5033950;28;20482;-85
2022/01/30 09:16:53;;;;;;;26.88;3.88;;;6.90;99.90;;;;;;5037947;28;20047;-84
2022/01/30 09:19:19;;;;;;;31.42;5.57;;;8.00;99.90;;;;;;5019146;28;20041;-84
2022/01/30 09:21:46;;;;;;;35.45;5.00;;;7.30;99.90;;;;;;5024197;28;20112;-85
2022/01/30 09:24:12;;;;;;;23.52;4.97;;;7.10;99.90;;;;;;5021444;28;20055;-85
2022/01/30 09:26:38;;;;;;;30.70;4.22;;;7.00;99.90;;;;;;5019114;28;20072;-84
2022/01/30 09:29:03;;;;;;;30.25;4.53;;;6.90;99.90;;;;;;5041087;28;20072;-84
2022/01/30 09:31:32;;;;;;;38.88;4.57;;;7.00;99.90;;;;;;5033535;28;20120;-85
2022/01/30 09:33:57;;;;;;;23.67;3.03;;;7.60;99.90;;;;;;5023933;28;20121;-86
2022/01/30 09:36:23;;;;;;;33.40;6.03;;;7.60;99.90;;;;;;5021391;28;20079;-83
2022/01/30 09:38:50;;;;;;;25.90;4.18;;;7.60;99.90;;;;;;5040954;28;20033;-85
2022/01/30 09:41:16;;;;;;;27.08;3.90;;;7.00;99.90;;;;;;5037500;28;20076;-80
2022/01/30 09:43:44;;;;;;;32.22;4.55;;;7.00;99.90;;;;;;5020804;28;20060;-84
2022/01/30 09:46:10;;;;;;;34.13;4.63;;;7.10;99.90;;;;;;5033774;28;20041;-79
2022/01/30 09:48:37;;;;;;;27.30;4.85;;;6.90;99.90;;;;;;5029872;28;20045;-79
2022/01/30 09:51:07;;;;;;;36.65;4.55;;;6.90;99.90;;;;;;5042537;28;20096;-80
2022/01/30 09:53:34;;;;;;;26.20;4.13;;;7.00;99.90;;;;;;5022295;28;20077;-81
2022/01/30 09:56:03;;;;;;;21.33;4.13;;;7.10;99.90;;;;;;5020310;28;20397;-81
2022/01/30 09:58:30;;;;;;;30.55;4.05;;;7.70;99.90;;;;;;5037157;28;20049;-81
2022/01/30 10:00:56;;;;;;;31.70;5.10;;;7.40;99.90;;;;;;5044550;28;20041;-78
2022/01/30 10:03:23;;;;;;;30.13;4.45;;;7.40;99.90;;;;;;5042567;28;20090;-79
2022/01/30 10:06:03;;;;;;;23.65;4.88;;;7.20;99.90;;;;;;5034180;28;20033;-78
2022/01/30 10:08:30;;;;;;;30.92;4.20;;;7.20;99.90;;;;;;5043897;28;20041;-84
2022/01/30 10:11:15;;;;;;;27.45;3.90;;;7.20;99.90;;;;;;5044432;28;20041;-86
2022/01/30 10:13:40;;;;;;;37.50;5.72;;;7.20;99.90;;;;;;5024937;28;20155;-85
2022/01/30 10:16:06;;;;;;;38.83;4.97;;;8.10;99.90;;;;;;5038221;28;20033;-82
2022/01/30 10:18:43;;;;;;;26.25;3.90;;;7.40;99.90;;;;;;5047746;28;20055;-87
2022/01/30 10:21:21;;;;;;;16.55;2.97;;;7.50;99.90;;;;;;5032910;28;20120;-84
2022/01/30 10:23:47;;;;;;;29.73;4.55;;;7.60;99.90;;;;;;5022723;28;20065;-84
2022/01/30 10:26:18;;;;;;;30.40;5.22;;;8.40;99.90;;;;;;5014769;28;20250;-81
2022/01/30 10:28:44;;;;;;;34.78;3.92;;;8.00;99.90;;;;;;5023570;28;20076;-87
2022/01/30 10:31:10;;;;;;;16.23;2.95;;;7.60;99.90;;;;;;5037410;28;20098;-83
2022/01/30 10:33:41;;;;;;;20.23;3.58;;;8.00;99.90;;;;;;5035376;28;20041;-82
2022/01/30 10:36:09;;;;;;;21.30;3.60;;;7.90;99.90;;;;;;5029727;28;20045;-80
2022/01/30 10:38:41;;;;;;;27.90;4.20;;;8.60;99.90;;;;;;5036082;28;20073;-86
2022/01/30 10:41:15;;;;;;;19.52;2.85;;;7.60;99.90;;;;;;5028627;28;20064;-82
2022/01/30 10:44:01;;;;;;;20.70;2.65;;;7.60;99.90;;;;;;5043589;28;20102;-81
2022/01/30 10:46:31;;;;;;;25.48;3.63;;;7.40;99.90;;;;;;5033520;28;20063;-85
2022/01/30 10:49:02;;;;;;;33.08;4.97;;;7.60;99.90;;;;;;5034571;28;20045;-85
2022/01/30 10:51:30;;;;;;;24.77;4.00;;;7.60;99.90;;;;;;5038456;28;20037;-83
2022/01/30 10:53:58;;;;;;;34.15;4.65;;;8.10;99.90;;;;;;5034135;28;20072;-80
2022/01/30 10:56:29;;;;;;;24.58;3.08;;;7.70;99.90;;;;;;5031206;28;20083;-80
2022/01/30 10:59:14;;;;;;;20.63;3.17;;;8.40;99.90;;;;;;5045638;28;20062;-79
2022/01/30 11:01:44;;;;;;;18.90;3.55;;;7.70;99.90;;;;;;5045823;28;20041;-81
2022/01/30 11:04:30;;;;;;;27.08;3.35;;;7.60;99.90;;;;;;5048350;28;20053;-80
2022/01/30 11:06:59;;;;;;;29.80;3.58;;;8.10;99.90;;;;;;5046671;28;20094;-80
2022/01/30 11:09:49;;;;;;;30.80;3.75;;;8.30;99.90;;;;;;5041466;28;20439;-80
2022/01/30 11:12:16;;;;;;;20.60;4.03;;;7.80;99.90;;;;;;5037404;28;20103;-81
2022/01/30 11:17:21;;;;;;;36.08;4.55;;;8.00;99.90;;;;;;5046845;28;20053;-80
2022/01/30 11:19:49;;;;;;;36.83;4.55;;;8.70;99.90;;;;;;5045355;28;20512;-80
2022/01/30 11:22:18;;;;;;;30.20;4.13;;;8.00;99.90;;;;;;5048102;28;20421;-80
2022/01/30 11:24:45;;;;;;;27.63;3.78;;;8.90;99.90;;;;;;5044113;28;20045;-80
2022/01/30 11:27:13;;;;;;;30.52;5.63;;;8.50;99.90;;;;;;5040827;28;20049;-80
2022/01/30 11:29:38;;;;;;;28.27;3.95;;;8.50;99.90;;;;;;5050720;28;20044;-80
2022/01/30 11:32:06;;;;;;;27.63;3.40;;;8.30;99.90;;;;;;5038308;28;20045;-82
2022/01/30 11:34:34;;;;;;;28.77;3.80;;;7.80;99.90;;;;;;5032085;28;20056;-80
2022/01/30 11:37:00;;;;;;;32.22;3.67;;;8.30;99.90;;;;;;5038724;28;20076;-79
2022/01/30 11:39:26;;;;;;;23.30;3.78;;;8.00;99.90;;;;;;5046844;28;20045;-81
2022/01/30 11:42:12;;;;;;;30.67;4.10;;;8.60;99.90;;;;;;5038509;28;20044;-79
2022/01/30 11:44:43;;;;;;;26.60;3.90;;;7.90;99.90;;;;;;5032588;28;20542;-80
2022/01/30 11:47:09;;;;;;;28.77;4.20;;;8.40;99.90;;;;;;5019978;28;20131;-80
2022/01/30 11:49:48;;;;;;;25.70;3.05;;;8.40;99.90;;;;;;5046656;28;20157;-80
2022/01/30 11:52:15;;;;;;;36.67;4.53;;;8.30;99.90;;;;;;5028759;28;20052;-78
2022/01/30 11:54:43;;;;;;;33.90;4.25;;;8.90;99.90;;;;;;5046117;28;20103;-81
2022/01/30 11:57:21;;;;;;;25.83;3.80;;;8.80;99.90;;;;;;5045864;28;20052;-84
2022/01/30 11:59:51;;;;;;;32.33;3.42;;;8.60;99.90;;;;;;5031272;28;20049;-84
2022/01/30 12:02:27;;;;;;;25.83;4.82;;;8.50;99.90;;;;;;5046316;28;20044;-80
2022/01/30 12:04:57;;;;;;;21.73;4.68;;;8.40;99.90;;;;;;5044036;28;20045;-79
2022/01/30 12:07:46;;;;;;;26.15;3.35;;;8.40;99.90;;;;;;5046576;28;20045;-78
2022/01/30 12:10:29;;;;;;;21.88;3.72;;;8.30;99.90;;;;;;5044299;28;20033;-79
2022/01/30 12:12:59;;;;;;;25.30;3.90;;;8.50;99.90;;;;;;5034782;28;20037;-80
2022/01/30 12:15:39;;;;;;;31.45;4.53;;;8.40;99.90;;;;;;5042994;28;20485;-77
2022/01/30 12:18:19;;;;;;;20.00;3.30;;;8.40;99.90;;;;;;5034703;28;20048;-80
2022/01/30 12:20:59;;;;;;;24.70;3.25;;;8.00;99.90;;;;;;5047271;28;20497;-80
2022/01/30 12:23:34;;;;;;;18.75;2.85;;;8.60;99.90;;;;;;5039656;28;20046;-78
2022/01/30 12:26:05;;;;;;;18.02;3.65;;;8.60;99.90;;;;;;5031848;28;20072;-80
2022/01/30 12:28:54;;;;;;;27.75;3.47;;;8.20;99.90;;;;;;5046099;28;20048;-79
2022/01/30 12:31:38;;;;;;;25.45;5.10;;;8.20;99.90;;;;;;5031156;28;20041;-80
2022/01/30 12:34:07;;;;;;;20.50;3.67;;;8.40;99.90;;;;;;5025511;28;20044;-79
2022/01/30 12:36:55;;;;;;;27.05;4.88;;;8.40;99.90;;;;;;5020192;28;20045;-80
2022/01/30 12:39:23;;;;;;;22.65;2.60;;;8.60;99.90;;;;;;5035101;28;20131;-79
2022/01/30 12:41:50;;;;;;;19.63;3.75;;;8.70;99.90;;;;;;5036890;28;20073;-79
2022/01/30 12:44:19;;;;;;;23.75;3.50;;;9.10;99.90;;;;;;5043051;28;20410;-81
2022/01/30 12:46:51;;;;;;;23.92;4.68;;;8.40;99.90;;;;;;5036709;28;20084;-79
2022/01/30 12:49:26;;;;;;;19.48;3.53;;;8.90;99.90;;;;;;5030725;28;20029;-78
2022/01/30 12:51:57;;;;;;;24.95;4.00;;;8.80;99.90;;;;;;5044532;28;20041;-79
2022/01/30 12:54:29;;;;;;;18.42;2.85;;;8.40;99.90;;;;;;5040726;28;20061;-81
2022/01/30 12:56:56;;;;;;;21.52;3.00;;;9.30;99.90;;;;;;5033571;28;20053;-81
2022/01/30 12:59:25;;;;;;;17.27;2.70;;;7.80;99.90;;;;;;5040716;28;20037;-80
2022/01/30 13:01:51;;;;;;;21.45;2.72;;;8.70;99.90;;;;;;5034668;28;20060;-80
2022/01/30 13:04:20;;;;;;;21.10;3.15;;;8.00;99.90;;;;;;5037458;28;20379;-78
2022/01/30 13:06:49;;;;;;;18.05;2.88;;;8.20;99.90;;;;;;5037365;28;20398;-80
2022/01/30 13:09:26;;;;;;;18.75;2.60;;;8.00;99.90;;;;;;5034252;28;20050;-79
2022/01/30 13:11:56;;;;;;;25.17;3.40;;;8.00;99.90;;;;;;5042612;28;20497;-80
2022/01/30 13:14:32;;;;;;;18.58;2.78;;;7.90;99.90;;;;;;5041937;28;20401;-81
2022/01/30 13:16:58;;;;;;;14.50;2.17;;;8.40;99.90;;;;;;5031266;28;20472;-80
2022/01/30 13:19:34;;;;;;;18.13;3.00;;;8.30;99.90;;;;;;5045154;28;20064;-82
2022/01/30 13:22:04;;;;;;;21.30;3.63;;;7.60;99.90;;;;;;5016277;28;20050;-81
2022/01/30 13:24:30;;;;;;;19.85;3.83;;;7.70;99.90;;;;;;5015622;28;20041;-79
2022/01/30 13:27:01;;;;;;;13.18;2.42;;;7.70;99.90;;;;;;5029425;28;20041;-81
2022/01/30 13:29:30;;;;;;;17.65;3.78;;;7.70;99.90;;;;;;5045736;28;20037;-79
2022/01/30 13:31:57;;;;;;;18.85;2.55;;;8.40;99.90;;;;;;5033562;28;20136;-77
2022/01/30 13:34:30;;;;;;;24.05;2.58;;;8.40;99.90;;;;;;5033829;28;20038;-83
2022/01/30 13:37:01;;;;;;;22.38;3.03;;;7.80;99.90;;;;;;5041563;28;20498;-81
2022/01/30 13:39:37;;;;;;;19.35;3.30;;;7.80;99.90;;;;;;5035505;28;20041;-83
2022/01/30 13:47:54;;;;;;;22.08;4.07;;;7.60;99.90;;;;;;5042151;28;20048;-80
2022/01/30 13:50:21;;;;;;;;;;;7.60;99.90;;;;;;5047118;28;20048;-80
2022/01/30 13:52:46;;;;;;;20.30;2.65;;;8.30;99.90;;;;;;5015532;28;19921;-81
2022/01/30 13:55:12;;;;;;;16.88;2.33;;;8.10;99.90;;;;;;5015303;28;20064;-82
2022/01/30 13:57:42;;;;;;;19.58;2.58;;;7.60;99.90;;;;;;5029420;28;20049;-80
2022/01/30 14:00:12;;;;;;;11.90;2.40;;;8.10;99.90;;;;;;5033599;28;20041;-82
2022/01/30 14:02:57;;;;;;;15.70;3.20;;;7.60;99.90;;;;;;5033660;28;20402;-82
2022/01/30 14:05:39;;;;;;;19.30;2.50;;;8.10;99.90;;;;;;5033482;28;20060;-81
2022/01/30 14:08:18;;;;;;;16.80;2.55;;;7.30;99.90;;;;;;5015748;28;20042;-82
2022/01/30 14:10:45;;;;;;;14.80;3.03;;;7.40;99.90;;;;;;5033393;28;20398;-83
2022/01/30 14:13:16;;;;;;;21.55;2.90;;;8.00;99.90;;;;;;5032793;28;20064;-84